createdAt,value
2018-08-30T00:01:56.962Z,15.80
2018-08-30T00:04:25.353Z,15.80
2018-08-30T00:06:53.726Z,15.80
2018-08-30T00:09:22.140Z,15.80
2018-08-30T00:11:50.512Z,15.90
2018-08-30T00:14:18.932Z,15.90
2018-08-30T00:16:47.369Z,15.80
2018-08-30T00:19:15.721Z,15.80
2018-08-30T00:21:44.133Z,15.80
2018-08-30T00:24:12.606Z,15.80
2018-08-30T00:26:42.204Z,15.80
2018-08-30T00:29:13.645Z,15.90
2018-08-30T00:31:42.065Z,15.90
2018-08-30T00:34:10.475Z,15.90
2018-08-30T00:36:38.839Z,15.90
2018-08-30T00:39:08.486Z,15.90
2018-08-30T00:41:37.105Z,15.90
2018-08-30T00:44:05.696Z,15.90
2018-08-30T00:46:34.801Z,15.90
2018-08-30T00:49:03.161Z,15.90
2018-08-30T00:51:31.569Z,15.90
2018-08-30T00:53:59.985Z,16.00
2018-08-30T00:56:28.407Z,15.90
2018-08-30T00:58:56.770Z,16.00
2018-08-30T01:01:25.169Z,16.00
2018-08-30T01:03:53.608Z,16.00
2018-08-30T01:06:21.977Z,16.00
2018-08-30T01:08:50.389Z,16.00
2018-08-30T01:11:18.837Z,16.00
2018-08-30T01:13:47.255Z,16.00
2018-08-30T01:16:15.717Z,16.00
2018-08-30T01:18:44.057Z,16.00
2018-08-30T01:21:12.454Z,16.00
2018-08-30T01:23:40.901Z,16.00
2018-08-30T01:26:09.280Z,16.00
2018-08-30T01:28:37.649Z,16.00
2018-08-30T01:31:06.061Z,16.00
2018-08-30T01:33:34.496Z,16.00
2018-08-30T01:36:03.021Z,16.00
2018-08-30T01:38:31.490Z,15.90
2018-08-30T01:40:59.846Z,15.90
2018-08-30T01:43:28.240Z,15.90
2018-08-30T01:45:56.597Z,15.90
2018-08-30T01:48:24.987Z,15.90
2018-08-30T01:50:53.493Z,16.00
2018-08-30T01:53:21.893Z,15.90
2018-08-30T01:55:50.297Z,15.90
2018-08-30T01:58:18.700Z,16.00
2018-08-30T02:00:47.108Z,16.00
2018-08-30T02:03:15.490Z,16.00
2018-08-30T02:05:43.993Z,16.00
2018-08-30T02:08:12.497Z,15.90
2018-08-30T02:10:40.930Z,16.00
2018-08-30T02:13:09.295Z,15.90
2018-08-30T02:15:37.661Z,15.90
2018-08-30T02:18:06.165Z,15.80
2018-08-30T02:20:34.661Z,15.80
2018-08-30T02:23:03.050Z,15.90
2018-08-30T02:25:32.149Z,15.80
2018-08-30T02:28:00.493Z,15.80
2018-08-30T02:30:28.934Z,15.80
2018-08-30T02:32:57.276Z,15.80
2018-08-30T02:35:25.664Z,15.80
2018-08-30T02:37:54.093Z,15.80
2018-08-30T02:40:22.466Z,15.80
2018-08-30T02:42:50.901Z,15.80
2018-08-30T02:45:19.281Z,15.80
2018-08-30T02:47:47.630Z,15.70
2018-08-30T02:50:15.994Z,15.70
2018-08-30T02:52:45.008Z,15.70
2018-08-30T02:55:13.420Z,15.80
2018-08-30T02:57:41.813Z,15.80
2018-08-30T03:00:10.200Z,15.80
2018-08-30T03:02:38.624Z,15.80
2018-08-30T03:05:07.037Z,15.80
2018-08-30T03:07:35.463Z,15.80
2018-08-30T03:10:03.971Z,15.80
2018-08-30T03:12:32.873Z,15.80
2018-08-30T03:15:10.033Z,15.80
2018-08-30T03:17:38.429Z,15.80
2018-08-30T03:20:08.620Z,15.80
2018-08-30T03:22:37.956Z,15.80
2018-08-30T03:25:06.453Z,15.70
2018-08-30T03:27:34.853Z,15.80
2018-08-30T03:30:03.464Z,15.80
2018-08-30T03:32:32.508Z,15.80
2018-08-30T03:35:00.880Z,15.80
2018-08-30T03:37:29.300Z,15.80
2018-08-30T03:39:57.713Z,15.80
2018-08-30T03:42:26.169Z,15.80
2018-08-30T03:44:54.652Z,15.80
2018-08-30T03:47:23.073Z,15.80
2018-08-30T03:49:51.434Z,15.70
2018-08-30T03:52:19.853Z,15.70
2018-08-30T03:54:48.221Z,15.60
2018-08-30T03:57:16.658Z,15.60
2018-08-30T03:59:45.129Z,15.60
2018-08-30T04:02:13.506Z,15.60
2018-08-30T04:04:41.876Z,15.60
2018-08-30T04:07:10.313Z,15.60
2018-08-30T04:09:38.780Z,15.50
2018-08-30T04:12:07.795Z,15.50
2018-08-30T04:14:36.281Z,15.50
2018-08-30T04:17:04.924Z,15.50
2018-08-30T04:19:33.285Z,15.40
2018-08-30T04:22:01.784Z,15.40
2018-08-30T04:24:30.205Z,15.40
2018-08-30T04:26:58.654Z,15.40
2018-08-30T04:29:27.001Z,15.40
2018-08-30T04:31:55.357Z,15.40
2018-08-30T04:34:23.817Z,15.50
2018-08-30T04:36:52.232Z,15.40
2018-08-30T04:39:20.760Z,15.40
2018-08-30T04:41:49.177Z,15.40
2018-08-30T04:44:17.540Z,15.40
2018-08-30T04:46:45.950Z,15.30
2018-08-30T04:49:14.319Z,15.30
2018-08-30T04:51:42.725Z,15.30
2018-08-30T04:54:11.165Z,15.30
2018-08-30T04:56:40.259Z,15.30
2018-08-30T04:59:08.684Z,15.20
2018-08-30T05:01:37.087Z,15.30
2018-08-30T05:04:05.505Z,15.20
2018-08-30T05:06:34.062Z,15.20
2018-08-30T05:09:02.503Z,15.20
2018-08-30T05:11:30.896Z,15.20
2018-08-30T05:13:59.289Z,15.20
2018-08-30T05:16:27.686Z,15.30
2018-08-30T05:18:56.069Z,15.30
2018-08-30T05:21:24.458Z,15.30
2018-08-30T05:23:52.879Z,15.30
2018-08-30T05:26:21.269Z,15.30
2018-08-30T05:28:49.665Z,15.30
2018-08-30T05:31:18.077Z,15.20
2018-08-30T05:33:46.518Z,15.30
2018-08-30T05:36:14.913Z,15.20
2018-08-30T05:38:43.401Z,15.30
2018-08-30T05:41:11.759Z,15.30
2018-08-30T05:43:40.254Z,15.40
2018-08-30T05:46:08.667Z,15.40
2018-08-30T05:48:37.095Z,15.40
2018-08-30T05:51:05.858Z,15.40
2018-08-30T05:53:34.240Z,15.40
2018-08-30T05:56:02.849Z,15.40
2018-08-30T05:58:31.222Z,15.50
2018-08-30T06:00:59.865Z,15.50
2018-08-30T06:03:29.307Z,15.50
2018-08-30T06:05:57.781Z,15.60
2018-08-30T06:08:26.891Z,15.70
2018-08-30T06:10:55.263Z,15.80
2018-08-30T06:13:23.692Z,15.80
2018-08-30T06:15:52.122Z,15.90
2018-08-30T06:18:20.565Z,15.90
2018-08-30T06:20:48.928Z,16.00
2018-08-30T06:23:17.329Z,16.10
2018-08-30T06:25:47.660Z,16.10
2018-08-30T06:30:49.710Z,16.30
2018-08-30T06:33:18.330Z,16.40
2018-08-30T06:35:46.891Z,16.50
2018-08-30T06:38:15.294Z,16.50
2018-08-30T06:40:43.728Z,16.60
2018-08-30T06:43:12.205Z,16.60
2018-08-30T06:45:41.699Z,16.80
2018-08-30T06:48:10.096Z,16.90
2018-08-30T06:50:38.650Z,17.00
2018-08-30T06:53:07.084Z,17.20
2018-08-30T06:55:35.477Z,17.20
2018-08-30T06:58:03.840Z,17.30
2018-08-30T07:00:32.364Z,17.30
2018-08-30T07:03:00.749Z,17.40
2018-08-30T07:05:29.157Z,17.50
2018-08-30T07:07:57.655Z,17.50
2018-08-30T07:10:26.259Z,17.50
2018-08-30T07:12:54.646Z,17.60
2018-08-30T07:15:23.050Z,17.70
2018-08-30T07:17:51.429Z,17.80
2018-08-30T07:20:20.352Z,17.80
2018-08-30T07:22:48.812Z,17.90
2018-08-30T07:25:17.233Z,18.20
2018-08-30T07:27:45.596Z,18.40
2018-08-30T07:30:14.913Z,18.50
2018-08-30T07:32:43.524Z,18.70
2018-08-30T07:35:12.053Z,18.70
2018-08-30T07:37:40.400Z,18.70
2018-08-30T07:40:08.851Z,18.90
2018-08-30T07:42:37.333Z,18.90
2018-08-30T07:45:05.769Z,18.90
2018-08-30T07:47:34.129Z,19.00
2018-08-30T07:50:02.541Z,19.00
2018-08-30T07:52:30.986Z,19.30
2018-08-30T07:54:59.390Z,19.20
2018-08-30T07:57:27.820Z,19.30
2018-08-30T07:59:56.242Z,19.50
2018-08-30T08:02:24.664Z,19.60
2018-08-30T08:04:53.109Z,19.70
2018-08-30T08:07:21.605Z,19.60
2018-08-30T08:09:49.929Z,19.40
2018-08-30T08:12:18.343Z,19.10
2018-08-30T08:14:46.762Z,18.80
2018-08-30T08:17:15.167Z,18.80
2018-08-30T08:19:43.583Z,18.70
2018-08-30T08:22:11.975Z,18.50
2018-08-30T08:24:41.010Z,18.40
2018-08-30T08:27:09.416Z,18.90
2018-08-30T08:29:37.916Z,19.50
2018-08-30T08:32:06.326Z,19.70
2018-08-30T08:34:34.702Z,19.90
2018-08-30T08:37:03.075Z,19.90
2018-08-30T08:39:31.528Z,20.30
2018-08-30T08:41:59.909Z,20.20
2018-08-30T08:44:28.305Z,20.00
2018-08-30T08:46:56.742Z,20.20
2018-08-30T08:49:25.127Z,20.20
2018-08-30T08:51:53.537Z,20.40
2018-08-30T08:54:21.954Z,20.50
2018-08-30T08:56:50.338Z,20.30
2018-08-30T08:59:18.881Z,20.30
2018-08-30T09:01:47.293Z,20.30
2018-08-30T09:04:15.705Z,20.10
2018-08-30T09:06:44.200Z,19.70
2018-08-30T09:09:13.117Z,19.70
2018-08-30T09:11:42.065Z,20.00
2018-08-30T09:14:10.525Z,20.30
2018-08-30T09:16:38.912Z,20.80
2018-08-30T09:19:07.421Z,21.10
2018-08-30T09:21:35.893Z,20.70
2018-08-30T09:24:04.297Z,21.00
2018-08-30T09:26:32.733Z,21.20
2018-08-30T09:29:01.123Z,21.50
2018-08-30T09:31:29.472Z,22.00
2018-08-30T09:33:58.046Z,22.20
2018-08-30T09:36:26.473Z,21.90
2018-08-30T09:38:54.923Z,21.60
2018-08-30T09:41:23.291Z,21.50
2018-08-30T09:43:51.729Z,21.20
2018-08-30T09:46:20.086Z,21.20
2018-08-30T09:48:48.468Z,21.40
2018-08-30T09:51:16.993Z,21.70
2018-08-30T09:53:45.369Z,22.40
2018-08-30T09:56:13.712Z,22.30
2018-08-30T09:58:42.105Z,21.70
2018-08-30T10:01:15.730Z,21.80
2018-08-30T10:03:44.128Z,22.10
2018-08-30T10:06:12.595Z,22.00
2018-08-30T10:08:41.003Z,22.70
2018-08-30T10:11:09.385Z,23.40
2018-08-30T10:13:37.926Z,23.70
2018-08-30T10:16:06.480Z,24.00
2018-08-30T10:18:34.870Z,24.00
2018-08-30T10:21:03.289Z,23.50
2018-08-30T10:23:31.881Z,22.90
2018-08-30T10:26:00.266Z,22.70
2018-08-30T10:28:28.686Z,23.00
2018-08-30T10:30:57.084Z,23.20
2018-08-30T10:33:25.457Z,23.10
2018-08-30T10:35:54.198Z,22.70
2018-08-30T10:38:22.691Z,22.30
2018-08-30T10:40:51.057Z,21.80
2018-08-30T10:43:19.505Z,21.50
2018-08-30T10:45:47.895Z,21.50
2018-08-30T10:48:16.293Z,21.80
2018-08-30T10:50:44.732Z,22.60
2018-08-30T10:53:13.120Z,23.10
2018-08-30T10:55:41.757Z,22.60
2018-08-30T10:58:10.156Z,22.40
2018-08-30T11:00:38.629Z,23.10
2018-08-30T11:03:07.065Z,23.40
2018-08-30T11:05:35.551Z,24.00
2018-08-30T11:08:04.063Z,24.50
2018-08-30T11:10:32.705Z,24.30
2018-08-30T11:13:01.201Z,23.30
2018-08-30T11:15:29.478Z,22.20
2018-08-30T11:17:57.953Z,21.70
2018-08-30T11:20:26.822Z,21.50
2018-08-30T11:22:55.224Z,21.40
2018-08-30T11:25:23.657Z,22.20
2018-08-30T11:27:52.050Z,23.20
2018-08-30T11:30:20.521Z,24.00
2018-08-30T11:32:48.885Z,24.10
2018-08-30T11:35:17.268Z,24.30
2018-08-30T11:37:45.677Z,24.50
2018-08-30T11:40:14.041Z,24.60
2018-08-30T11:42:42.509Z,24.30
2018-08-30T11:45:11.003Z,24.40
2018-08-30T11:47:39.408Z,24.40
2018-08-30T11:50:07.832Z,24.50
2018-08-30T11:52:36.325Z,24.70
2018-08-30T11:55:04.782Z,24.90
2018-08-30T11:57:33.160Z,24.80
2018-08-30T12:00:01.585Z,25.00
2018-08-30T12:02:29.985Z,25.10
2018-08-30T12:04:58.434Z,25.00
2018-08-30T12:07:26.842Z,25.00
2018-08-30T12:09:56.845Z,25.10
2018-08-30T12:12:23.997Z,25.50
2018-08-30T12:14:53.202Z,25.60
2018-08-30T12:17:21.622Z,25.30
2018-08-30T12:19:50.101Z,25.30
2018-08-30T12:22:18.629Z,25.10
2018-08-30T12:24:47.861Z,24.30
2018-08-30T12:27:16.325Z,23.80
2018-08-30T12:29:44.764Z,23.40
2018-08-30T12:32:13.142Z,23.20
2018-08-30T12:34:41.521Z,23.40
2018-08-30T12:37:10.025Z,24.00
2018-08-30T12:39:38.479Z,24.40
2018-08-30T12:42:06.905Z,23.70
2018-08-30T12:44:35.270Z,23.20
2018-08-30T12:47:03.626Z,22.70
2018-08-30T12:49:32.095Z,22.70
2018-08-30T12:52:00.545Z,22.90
2018-08-30T12:54:29.034Z,22.90
2018-08-30T12:56:57.446Z,23.50
2018-08-30T12:59:31.255Z,23.50
2018-08-30T13:01:59.737Z,23.30
2018-08-30T13:04:28.284Z,23.00
2018-08-30T13:06:57.531Z,23.40
2018-08-30T13:09:27.292Z,23.70
2018-08-30T13:11:57.495Z,23.90
2018-08-30T13:14:26.001Z,24.20
2018-08-30T13:16:54.626Z,24.00
2018-08-30T13:19:23.192Z,24.10
2018-08-30T13:21:51.563Z,24.30
2018-08-30T13:24:20.109Z,23.70
2018-08-30T13:26:48.584Z,23.80
2018-08-30T13:29:17.122Z,23.50
2018-08-30T13:31:45.844Z,23.30
2018-08-30T13:34:15.371Z,23.10
2018-08-30T13:39:21.657Z,22.70
2018-08-30T13:41:49.886Z,23.30
2018-08-30T13:44:18.050Z,23.70
2018-08-30T13:46:46.550Z,23.30
2018-08-30T13:49:15.391Z,22.80
2018-08-30T13:51:43.869Z,23.00
2018-08-30T13:54:12.477Z,23.20
2018-08-30T13:56:40.865Z,23.30
2018-08-30T13:59:09.442Z,23.50
2018-08-30T14:01:37.699Z,23.70
2018-08-30T14:04:05.916Z,23.70
2018-08-30T14:06:34.320Z,23.50
2018-08-30T14:09:02.786Z,23.40
2018-08-30T14:11:31.221Z,23.40
2018-08-30T14:13:59.582Z,23.40
2018-08-30T14:16:27.701Z,23.40
2018-08-30T14:18:57.449Z,23.60
2018-08-30T14:21:25.909Z,23.70
2018-08-30T14:23:54.308Z,23.80
2018-08-30T14:26:23.496Z,23.70
2018-08-30T14:28:51.779Z,23.60
2018-08-30T14:31:20.261Z,23.70
2018-08-30T14:33:48.638Z,23.70
2018-08-30T14:36:17.120Z,23.70
2018-08-30T14:38:46.200Z,23.70
2018-08-30T14:41:14.465Z,23.50
2018-08-30T14:43:42.714Z,23.50
2018-08-30T14:46:11.075Z,23.30
2018-08-30T14:48:39.687Z,22.70
2018-08-30T14:51:08.105Z,22.40
2018-08-30T14:53:36.534Z,22.10
2018-08-30T14:56:04.869Z,22.20
2018-08-30T14:58:34.133Z,22.30
2018-08-30T15:01:03.691Z,22.00
2018-08-30T15:03:32.051Z,21.70
2018-08-30T15:06:01.170Z,21.50
2018-08-30T15:08:29.475Z,21.60
2018-08-30T15:10:57.969Z,21.70
2018-08-30T15:13:26.494Z,21.80
2018-08-30T15:15:55.132Z,22.10
2018-08-30T15:18:23.365Z,22.30
2018-08-30T15:20:51.780Z,22.20
2018-08-30T15:23:20.241Z,22.30
2018-08-30T15:25:48.571Z,22.10
2018-08-30T15:28:16.989Z,22.00
2018-08-30T15:30:45.357Z,21.90
2018-08-30T15:33:13.755Z,21.80
2018-08-30T15:35:42.269Z,22.00
2018-08-30T15:38:10.671Z,22.10
2018-08-30T15:40:39.046Z,22.10
2018-08-30T15:43:07.533Z,21.90
2018-08-30T15:45:35.875Z,21.70
2018-08-30T15:48:04.370Z,21.40
2018-08-30T15:50:32.741Z,21.20
2018-08-30T15:53:01.186Z,21.10
2018-08-30T15:55:29.546Z,21.20
2018-08-30T15:57:57.982Z,21.30
2018-08-30T16:00:26.342Z,21.40
2018-08-30T16:02:54.746Z,21.30
2018-08-30T16:05:23.253Z,21.10
2018-08-30T16:07:52.329Z,21.00
2018-08-30T16:10:20.726Z,21.10
2018-08-30T16:12:49.132Z,21.00
2018-08-30T16:15:17.687Z,21.10
2018-08-30T16:17:46.156Z,21.00
2018-08-30T16:20:14.554Z,20.90
2018-08-30T16:23:47.939Z,20.80
2018-08-30T16:26:16.330Z,20.80
2018-08-30T16:28:44.723Z,20.90
2018-08-30T16:31:13.993Z,20.90
2018-08-30T16:33:42.417Z,20.80
2018-08-30T16:36:11.845Z,20.80
2018-08-30T16:38:40.545Z,20.70
2018-08-30T16:41:09.960Z,20.60
2018-08-30T16:43:38.577Z,20.60
2018-08-30T16:46:07.090Z,20.60
2018-08-30T16:48:35.504Z,20.50
2018-08-30T16:51:03.909Z,20.50
2018-08-30T16:53:32.362Z,20.40
2018-08-30T16:56:00.844Z,20.30
2018-08-30T16:58:29.258Z,20.30
2018-08-30T17:00:57.697Z,20.30
2018-08-30T17:03:26.203Z,20.20
2018-08-30T17:05:54.617Z,20.20
2018-08-30T17:08:23.171Z,20.00
2018-08-30T17:10:51.800Z,20.00
2018-08-30T17:13:20.327Z,20.00
2018-08-30T17:15:53.258Z,19.90
2018-08-30T17:18:21.804Z,19.90
2018-08-30T17:23:27.711Z,19.90
2018-08-30T17:25:56.097Z,19.90
2018-08-30T17:28:24.973Z,19.70
2018-08-30T17:30:54.066Z,19.70
2018-08-30T17:33:22.477Z,19.60
2018-08-30T17:35:50.930Z,19.50
2018-08-30T17:38:19.295Z,19.50
2018-08-30T17:40:47.692Z,19.50
2018-08-30T17:43:16.062Z,19.40
2018-08-30T17:45:44.493Z,19.30
2018-08-30T17:48:13.746Z,19.30
2018-08-30T17:50:42.125Z,19.20
2018-08-30T17:53:10.528Z,19.20
2018-08-30T17:55:38.909Z,19.30
2018-08-30T17:58:07.333Z,19.20
2018-08-30T18:00:35.826Z,19.20
2018-08-30T18:03:04.287Z,19.20
2018-08-30T18:05:32.680Z,19.00
2018-08-30T18:08:01.078Z,18.90
2018-08-30T18:10:29.546Z,18.90
2018-08-30T18:12:57.944Z,18.80
2018-08-30T18:15:26.322Z,18.70
2018-08-30T18:17:54.791Z,18.70
2018-08-30T18:20:23.186Z,18.70
2018-08-30T18:22:51.573Z,18.60
2018-08-30T18:25:19.959Z,18.60
2018-08-30T18:27:48.342Z,18.50
2018-08-30T18:30:16.725Z,18.40
2018-08-30T18:32:45.124Z,18.40
2018-08-30T18:35:13.600Z,18.40
2018-08-30T18:37:41.929Z,18.30
2018-08-30T18:40:10.736Z,18.20
2018-08-30T18:42:39.414Z,18.10
2018-08-30T18:45:07.837Z,18.00
2018-08-30T18:47:36.576Z,18.00
2018-08-30T18:50:05.062Z,18.00
2018-08-30T18:52:33.761Z,18.00
2018-08-30T18:55:02.312Z,17.90
2018-08-30T18:57:30.680Z,17.90
2018-08-30T18:59:59.097Z,17.80
2018-08-30T19:02:27.759Z,17.70
2018-08-30T19:04:56.214Z,17.70
2018-08-30T19:07:24.606Z,17.60
2018-08-30T19:09:52.972Z,17.50
2018-08-30T19:12:22.310Z,17.50
2018-08-30T19:14:50.953Z,17.40
2018-08-30T19:17:24.953Z,17.40
2018-08-30T19:19:53.370Z,17.30
2018-08-30T19:22:21.737Z,17.20
2018-08-30T19:24:55.394Z,17.20
2018-08-30T19:27:23.775Z,17.10
2018-08-30T19:29:57.612Z,17.00
2018-08-30T19:32:26.053Z,17.00
2018-08-30T19:34:58.368Z,16.90
2018-08-30T19:37:26.866Z,16.90
2018-08-30T19:39:55.377Z,16.80
2018-08-30T19:42:23.829Z,16.70
2018-08-30T19:44:52.210Z,16.60
2018-08-30T19:47:20.602Z,16.50
2018-08-30T19:49:49.022Z,16.50
2018-08-30T19:52:17.455Z,16.50
2018-08-30T19:54:45.927Z,16.40
2018-08-30T19:57:14.285Z,16.40
2018-08-30T19:59:42.669Z,16.40
2018-08-30T20:02:11.131Z,16.30
2018-08-30T20:04:39.527Z,16.30
2018-08-30T20:07:07.924Z,16.20
2018-08-30T20:09:36.413Z,16.20
2018-08-30T20:12:04.881Z,16.10
2018-08-30T20:14:33.323Z,16.10
2018-08-30T20:17:01.727Z,16.10
2018-08-30T20:19:30.105Z,16.00
2018-08-30T20:21:58.518Z,15.90
2018-08-30T20:24:27.374Z,15.90
2018-08-30T20:26:55.762Z,15.90
2018-08-30T20:29:24.122Z,15.90
2018-08-30T20:31:52.625Z,15.90
2018-08-30T20:34:21.012Z,15.80
2018-08-30T20:36:49.481Z,15.80
2018-08-30T20:39:17.844Z,15.80
2018-08-30T20:41:46.193Z,15.70
2018-08-30T20:44:14.597Z,15.70
2018-08-30T20:46:43.532Z,15.60
2018-08-30T20:49:12.393Z,15.60
2018-08-30T20:51:40.793Z,15.50
2018-08-30T20:54:09.291Z,15.50
2018-08-30T20:56:37.772Z,15.50
2018-08-30T20:59:06.169Z,15.50
2018-08-30T21:01:34.502Z,15.40
2018-08-30T21:04:03.046Z,15.30
2018-08-30T21:06:31.825Z,15.30
2018-08-30T21:09:00.308Z,15.30
2018-08-30T21:11:28.831Z,15.30
2018-08-30T21:13:57.221Z,15.30
2018-08-30T21:16:25.589Z,15.30
2018-08-30T21:18:53.969Z,15.30
2018-08-30T21:21:22.330Z,15.30
2018-08-30T21:23:50.705Z,15.20
2018-08-30T21:26:19.128Z,15.20
2018-08-30T21:28:47.493Z,15.10
2018-08-30T21:31:15.993Z,15.10
2018-08-30T21:33:44.368Z,15.00
2018-08-30T21:36:12.858Z,15.00
2018-08-30T21:38:41.441Z,14.90
2018-08-30T21:41:09.785Z,14.90
2018-08-30T21:43:38.153Z,14.90
2018-08-30T21:46:06.657Z,14.80
2018-08-30T21:48:35.306Z,14.80
2018-08-30T21:51:03.721Z,14.90
2018-08-30T21:53:32.130Z,14.80
2018-08-30T21:56:00.472Z,14.80
2018-08-30T21:58:28.872Z,14.70
2018-08-30T22:00:57.855Z,14.70
2018-08-30T22:03:26.190Z,14.70
2018-08-30T22:05:54.599Z,14.60
2018-08-30T22:08:23.728Z,14.70
2018-08-30T22:10:52.110Z,14.70
2018-08-30T22:13:20.659Z,14.70
2018-08-30T22:15:48.953Z,14.60
2018-08-30T22:18:17.381Z,14.60
2018-08-30T22:20:45.757Z,14.60
2018-08-30T22:23:14.132Z,14.60
2018-08-30T22:25:42.666Z,14.60
2018-08-30T22:28:11.057Z,14.50
2018-08-30T22:30:39.432Z,14.50
2018-08-30T22:33:07.853Z,14.40
2018-08-30T22:35:36.209Z,14.40
2018-08-30T22:38:04.665Z,14.40
2018-08-30T22:40:33.066Z,14.40
2018-08-30T22:43:01.464Z,14.40
2018-08-30T22:45:29.878Z,14.30
2018-08-30T22:47:58.253Z,14.20
2018-08-30T22:50:26.639Z,14.30
2018-08-30T22:52:55.073Z,14.20
2018-08-30T22:55:23.425Z,14.20
2018-08-30T22:57:51.832Z,14.20
2018-08-30T23:00:20.229Z,14.10
2018-08-30T23:02:48.595Z,14.10
2018-08-30T23:05:16.968Z,14.00
2018-08-30T23:07:45.423Z,14.00
2018-08-30T23:10:13.793Z,14.00
2018-08-30T23:12:42.173Z,14.00
2018-08-30T23:15:10.618Z,14.00
2018-08-30T23:17:39.004Z,14.00
2018-08-30T23:20:07.417Z,13.90
2018-08-30T23:22:35.815Z,13.90
2018-08-30T23:25:04.265Z,13.80
2018-08-30T23:27:32.620Z,13.80
2018-08-30T23:30:01.014Z,13.80
2018-08-30T23:32:29.431Z,13.70
2018-08-30T23:34:57.806Z,13.70
2018-08-30T23:37:26.197Z,13.60
2018-08-30T23:39:54.625Z,13.50
2018-08-30T23:42:22.998Z,13.50
2018-08-30T23:44:51.357Z,13.50
2018-08-30T23:47:19.757Z,13.40
2018-08-30T23:49:48.221Z,13.40
2018-08-30T23:52:16.602Z,13.40
2018-08-30T23:54:45.010Z,13.30
2018-08-30T23:57:13.388Z,13.30
2018-08-30T23:59:53.065Z,13.30
